South Portland, Maine
Current Conditions -  °F | °C
As of 3:51 AM on Monday 22 Dec 2014 (Local Time) from KPWM Reporting Station
Overcast Overcast  
Wind Chill: 24°   Ceiling: 4900
Heat Index: 31°   Visibility: 10mi
Dew Point: 25°   Wind: 7mph
Humidity: 79%   Direction: 360°N
Pressure: 30.38"   Gusts: NA
Location:  43.64°N, 70.25°W
Report Text: KPWM 220851Z AUTO 36006KT 10SM OVC049 M01/M04 A3038 RMK AO2 SLP290 T10061039 58001
Loading
Personal Weather Stations






























Interactive Weather Map New forecast layout! Learn more

10-Day Weather Forecast

Advertisements
Track Severe Weather on mobile